DLH3AP EDDS-LSGG
Flight info
| Callsign | DLH3AP |
|---|---|
| Flight time | 0h 39m |
| Altitude | 25000 |
| Route | ROTWE5B/25 ROTWE Y126 TUBLO N850 NATOR DCT LUTIX DCT BENOT |
| Aircraft | A321/M-SDE3FGHIRWY/LB1 |
Departure
| Time | 2026-05-05 16:51 |
|---|---|
| Airport | Stuttgart Airport (EDDS) |
Arrival
| Time | 2026-05-05 17:31 |
|---|---|
| Airport | Geneva International Airport (LSGG) |
| Time | Latitude | Longitude | Altitude | Speed | Heading |
|---|---|---|---|---|---|
| 2026-05-05 16:09 | 48.68939 | 9.19646 | 1315 ft | 0 kts | 344° |
| 2026-05-05 16:40 | 48.68921 | 9.19653 | 1313 ft | 4 kts | 352° |
| 2026-05-05 16:40 | 48.68894 | 9.19655 | 1311 ft | 4 kts | 8° |
| 2026-05-05 16:41 | 48.68869 | 9.19645 | 1310 ft | 4 kts | 32° |
| 2026-05-05 16:41 | 48.68852 | 9.19619 | 1309 ft | 2 kts | 73° |
| 2026-05-05 16:41 | 48.68852 | 9.19617 | 1309 ft | 1 kts | 73° |
| 2026-05-05 16:45 | 48.68852 | 9.19620 | 1309 ft | 2 kts | 73° |
| 2026-05-05 16:46 | 48.68868 | 9.19701 | 1308 ft | 12 kts | 73° |
| 2026-05-05 16:46 | 48.68894 | 9.19848 | 1304 ft | 11 kts | 92° |
| 2026-05-05 16:46 | 48.68827 | 9.19905 | 1298 ft | 13 kts | 148° |
| 2026-05-05 16:46 | 48.68841 | 9.20045 | 1294 ft | 16 kts | 70° |
| 2026-05-05 16:47 | 48.68875 | 9.20227 | 1290 ft | 20 kts | 74° |
| 2026-05-05 16:47 | 48.68917 | 9.20449 | 1287 ft | 24 kts | 74° |
| 2026-05-05 16:47 | 48.68967 | 9.20708 | 1278 ft | 26 kts | 74° |
| 2026-05-05 16:47 | 48.69015 | 9.20954 | 1272 ft | 26 kts | 73° |
| 2026-05-05 16:48 | 48.69054 | 9.21167 | 1269 ft | 22 kts | 75° |
| 2026-05-05 16:48 | 48.69099 | 9.21404 | 1265 ft | 25 kts | 74° |
| 2026-05-05 16:48 | 48.69144 | 9.21643 | 1257 ft | 24 kts | 74° |
| 2026-05-05 16:48 | 48.69193 | 9.21904 | 1261 ft | 27 kts | 74° |
| 2026-05-05 16:49 | 48.69249 | 9.22194 | 1248 ft | 30 kts | 74° |
| 2026-05-05 16:49 | 48.69308 | 9.22511 | 1234 ft | 32 kts | 74° |
| 2026-05-05 16:49 | 48.69373 | 9.22849 | 1229 ft | 34 kts | 74° |
| 2026-05-05 16:49 | 48.69416 | 9.23076 | 1224 ft | 20 kts | 75° |
| 2026-05-05 16:50 | 48.69361 | 9.23157 | 1220 ft | 12 kts | 165° |
| 2026-05-05 16:50 | 48.69284 | 9.23189 | 1215 ft | 14 kts | 165° |
| 2026-05-05 16:50 | 48.69209 | 9.23222 | 1212 ft | 5 kts | 163° |
| 2026-05-05 16:50 | 48.69181 | 9.23206 | 1213 ft | 4 kts | 232° |
| 2026-05-05 16:51 | 48.69161 | 9.23110 | 1215 ft | 33 kts | 255° |
| 2026-05-05 16:51 | 48.69018 | 9.22353 | 1232 ft | 113 kts | 254° |
| 2026-05-05 16:51 | 48.68743 | 9.20887 | 1356 ft | 167 kts | 254° |
| 2026-05-05 16:51 | 48.68447 | 9.19225 | 2247 ft | 161 kts | 256° |
| 2026-05-05 16:52 | 48.68197 | 9.17613 | 3174 ft | 152 kts | 255° |
| 2026-05-05 16:52 | 48.67907 | 9.16050 | 3776 ft | 159 kts | 252° |
| 2026-05-05 16:52 | 48.67592 | 9.14402 | 4199 ft | 173 kts | 253° |
| 2026-05-05 16:52 | 48.67252 | 9.12559 | 4656 ft | 186 kts | 253° |
| 2026-05-05 16:53 | 48.66883 | 9.10627 | 4990 ft | 202 kts | 252° |
| 2026-05-05 16:53 | 48.66463 | 9.08485 | 5226 ft | 224 kts | 252° |
| 2026-05-05 16:53 | 48.65983 | 9.06086 | 5472 ft | 248 kts | 251° |
| 2026-05-05 16:53 | 48.65464 | 9.03555 | 6182 ft | 256 kts | 251° |
| 2026-05-05 16:54 | 48.64931 | 9.00960 | 6904 ft | 260 kts | 251° |
| 2026-05-05 16:54 | 48.64404 | 8.98350 | 7790 ft | 258 kts | 252° |
| 2026-05-05 16:54 | 48.63796 | 8.95825 | 8719 ft | 254 kts | 240° |
| 2026-05-05 16:54 | 48.62652 | 8.93739 | 9367 ft | 261 kts | 224° |
| 2026-05-05 16:55 | 48.61274 | 8.91931 | 10118 ft | 264 kts | 219° |
| 2026-05-05 16:55 | 48.59795 | 8.90148 | 10494 ft | 282 kts | 220° |
| 2026-05-05 16:55 | 48.58217 | 8.88188 | 10674 ft | 304 kts | 221° |
| 2026-05-05 16:55 | 48.56574 | 8.86071 | 11143 ft | 314 kts | 221° |
| 2026-05-05 16:56 | 48.54925 | 8.83874 | 11766 ft | 318 kts | 223° |
| 2026-05-05 16:56 | 48.53272 | 8.81621 | 12445 ft | 322 kts | 223° |
| 2026-05-05 16:56 | 48.51602 | 8.79321 | 13107 ft | 327 kts | 223° |
| 2026-05-05 16:56 | 48.49936 | 8.77018 | 13663 ft | 332 kts | 223° |
| 2026-05-05 16:57 | 48.48229 | 8.74662 | 13799 ft | 332 kts | 223° |
| 2026-05-05 16:57 | 48.46520 | 8.72311 | 13832 ft | 332 kts | 223° |
| 2026-05-05 16:57 | 48.44809 | 8.69961 | 13835 ft | 332 kts | 223° |
| 2026-05-05 16:57 | 48.43099 | 8.67613 | 13836 ft | 332 kts | 223° |
| 2026-05-05 16:58 | 48.41405 | 8.65290 | 13831 ft | 333 kts | 223° |
| 2026-05-05 16:58 | 48.39691 | 8.62941 | 13838 ft | 332 kts | 223° |
| 2026-05-05 16:58 | 48.37980 | 8.60604 | 13835 ft | 332 kts | 223° |
| 2026-05-05 16:58 | 48.36264 | 8.58267 | 13841 ft | 332 kts | 222° |
| 2026-05-05 16:59 | 48.34864 | 8.56360 | 14062 ft | 336 kts | 222° |
| 2026-05-05 16:59 | 48.33128 | 8.53996 | 14735 ft | 337 kts | 222° |
| 2026-05-05 16:59 | 48.31379 | 8.51617 | 15357 ft | 340 kts | 222° |
| 2026-05-05 16:59 | 48.29631 | 8.49243 | 15935 ft | 344 kts | 222° |
| 2026-05-05 17:00 | 48.27845 | 8.46817 | 16523 ft | 348 kts | 221° |
| 2026-05-05 17:00 | 48.26036 | 8.44361 | 17098 ft | 352 kts | 221° |
| 2026-05-05 17:00 | 48.24212 | 8.41884 | 17662 ft | 356 kts | 221° |
| 2026-05-05 17:00 | 48.22362 | 8.39381 | 18184 ft | 360 kts | 221° |
| 2026-05-05 17:01 | 48.20494 | 8.36857 | 18664 ft | 363 kts | 221° |
| 2026-05-05 17:01 | 48.18636 | 8.34347 | 19150 ft | 366 kts | 221° |
| 2026-05-05 17:01 | 48.16692 | 8.31863 | 19657 ft | 368 kts | 215° |
| 2026-05-05 17:01 | 48.14543 | 8.29740 | 20154 ft | 371 kts | 212° |
| 2026-05-05 17:02 | 48.12366 | 8.27646 | 20686 ft | 372 kts | 212° |
| 2026-05-05 17:02 | 48.10186 | 8.25546 | 21243 ft | 372 kts | 212° |
| 2026-05-05 17:02 | 48.08001 | 8.23439 | 21728 ft | 375 kts | 212° |
| 2026-05-05 17:02 | 48.05799 | 8.21322 | 22175 ft | 378 kts | 212° |
| 2026-05-05 17:03 | 48.03575 | 8.19183 | 22636 ft | 381 kts | 212° |
| 2026-05-05 17:03 | 48.01340 | 8.17034 | 23106 ft | 383 kts | 212° |
| 2026-05-05 17:03 | 47.99074 | 8.14857 | 23336 ft | 392 kts | 212° |
| 2026-05-05 17:03 | 47.96750 | 8.12624 | 23468 ft | 402 kts | 212° |
| 2026-05-05 17:04 | 47.94364 | 8.10331 | 23589 ft | 412 kts | 212° |
| 2026-05-05 17:04 | 47.91925 | 8.07996 | 23720 ft | 421 kts | 212° |
| 2026-05-05 17:04 | 47.89440 | 8.05620 | 23826 ft | 429 kts | 212° |
| 2026-05-05 17:04 | 47.86925 | 8.03221 | 23960 ft | 437 kts | 212° |
| 2026-05-05 17:05 | 47.84340 | 8.00756 | 24072 ft | 444 kts | 212° |
| 2026-05-05 17:05 | 47.81713 | 7.98253 | 24186 ft | 450 kts | 212° |
| 2026-05-05 17:05 | 47.79056 | 7.95722 | 24318 ft | 455 kts | 212° |
| 2026-05-05 17:05 | 47.76377 | 7.93172 | 24428 ft | 459 kts | 212° |
| 2026-05-05 17:06 | 47.73683 | 7.90612 | 24574 ft | 461 kts | 212° |
| 2026-05-05 17:06 | 47.70972 | 7.88040 | 24762 ft | 462 kts | 212° |
| 2026-05-05 17:06 | 47.68293 | 7.85500 | 24853 ft | 463 kts | 212° |
| 2026-05-05 17:06 | 47.65575 | 7.82925 | 24867 ft | 462 kts | 212° |
| 2026-05-05 17:07 | 47.62864 | 7.80364 | 24868 ft | 462 kts | 212° |
| 2026-05-05 17:07 | 47.60155 | 7.77810 | 24869 ft | 462 kts | 212° |
| 2026-05-05 17:07 | 47.57433 | 7.75244 | 24866 ft | 462 kts | 212° |
| 2026-05-05 17:07 | 47.54719 | 7.72690 | 24865 ft | 462 kts | 211° |
| 2026-05-05 17:08 | 47.52008 | 7.70145 | 24740 ft | 456 kts | 212° |
| 2026-05-05 17:08 | 47.49394 | 7.67691 | 24517 ft | 435 kts | 211° |
| 2026-05-05 17:08 | 47.46893 | 7.65345 | 24308 ft | 418 kts | 211° |
| 2026-05-05 17:08 | 47.44464 | 7.63071 | 24096 ft | 410 kts | 211° |
| 2026-05-05 17:09 | 47.42059 | 7.60825 | 23909 ft | 408 kts | 211° |
| 2026-05-05 17:09 | 47.39670 | 7.58591 | 23732 ft | 406 kts | 211° |
| 2026-05-05 17:09 | 47.37284 | 7.56361 | 23536 ft | 405 kts | 211° |
| 2026-05-05 17:09 | 47.34902 | 7.54144 | 23340 ft | 404 kts | 211° |
| 2026-05-05 17:10 | 47.32523 | 7.51930 | 23116 ft | 401 kts | 211° |
| 2026-05-05 17:10 | 47.30172 | 7.49738 | 22915 ft | 398 kts | 211° |
| 2026-05-05 17:10 | 47.27835 | 7.47562 | 22695 ft | 396 kts | 211° |
| 2026-05-05 17:10 | 47.25501 | 7.45393 | 22490 ft | 395 kts | 211° |
| 2026-05-05 17:11 | 47.23211 | 7.43271 | 22281 ft | 394 kts | 211° |
| 2026-05-05 17:11 | 47.20893 | 7.41129 | 22053 ft | 393 kts | 211° |
| 2026-05-05 17:11 | 47.18583 | 7.38991 | 21853 ft | 391 kts | 212° |
| 2026-05-05 17:11 | 47.16416 | 7.36593 | 21641 ft | 391 kts | 222° |
| 2026-05-05 17:12 | 47.14620 | 7.33592 | 21434 ft | 391 kts | 230° |
| 2026-05-05 17:12 | 47.12932 | 7.30468 | 21226 ft | 389 kts | 230° |
| 2026-05-05 17:12 | 47.11251 | 7.27364 | 21020 ft | 388 kts | 230° |
| 2026-05-05 17:12 | 47.09572 | 7.24272 | 20863 ft | 386 kts | 230° |
| 2026-05-05 17:13 | 47.07896 | 7.21193 | 20889 ft | 386 kts | 230° |
| 2026-05-05 17:13 | 47.06216 | 7.18114 | 20891 ft | 386 kts | 230° |
| 2026-05-05 17:13 | 47.04538 | 7.15040 | 20903 ft | 386 kts | 230° |
| 2026-05-05 17:13 | 47.02860 | 7.11957 | 20905 ft | 386 kts | 230° |
| 2026-05-05 17:14 | 47.01181 | 7.08868 | 20216 ft | 389 kts | 230° |
| 2026-05-05 17:14 | 46.99500 | 7.05783 | 19692 ft | 382 kts | 230° |
| 2026-05-05 17:14 | 46.97852 | 7.02767 | 19079 ft | 377 kts | 230° |
| 2026-05-05 17:14 | 46.96217 | 6.99793 | 18574 ft | 372 kts | 230° |
| 2026-05-05 17:15 | 46.94600 | 6.96858 | 18067 ft | 368 kts | 230° |
| 2026-05-05 17:15 | 46.93016 | 6.93986 | 17557 ft | 365 kts | 230° |
| 2026-05-05 17:15 | 46.91286 | 6.91299 | 17071 ft | 362 kts | 219° |
| 2026-05-05 17:15 | 46.89143 | 6.89416 | 16603 ft | 358 kts | 204° |
| 2026-05-05 17:16 | 46.86887 | 6.88068 | 16435 ft | 341 kts | 203° |
| 2026-05-05 17:16 | 46.84771 | 6.86805 | 16270 ft | 313 kts | 204° |
| 2026-05-05 17:16 | 46.82842 | 6.85650 | 16120 ft | 287 kts | 204° |
| 2026-05-05 17:16 | 46.81049 | 6.84570 | 15990 ft | 272 kts | 204° |
| 2026-05-05 17:17 | 46.79334 | 6.83537 | 15862 ft | 261 kts | 204° |
| 2026-05-05 17:17 | 46.77688 | 6.82546 | 15734 ft | 251 kts | 204° |
| 2026-05-05 17:17 | 46.76100 | 6.81589 | 15561 ft | 244 kts | 204° |
| 2026-05-05 17:17 | 46.74545 | 6.80651 | 15290 ft | 241 kts | 204° |
| 2026-05-05 17:18 | 46.73002 | 6.79723 | 14981 ft | 239 kts | 204° |
| 2026-05-05 17:18 | 46.71468 | 6.78805 | 14671 ft | 237 kts | 204° |
| 2026-05-05 17:18 | 46.69943 | 6.77895 | 14354 ft | 236 kts | 204° |
| 2026-05-05 17:18 | 46.68423 | 6.76986 | 13975 ft | 237 kts | 204° |
| 2026-05-05 17:19 | 46.66905 | 6.76055 | 13565 ft | 236 kts | 207° |
| 2026-05-05 17:19 | 46.65516 | 6.74788 | 13090 ft | 236 kts | 219° |
| 2026-05-05 17:19 | 46.64360 | 6.73145 | 12615 ft | 235 kts | 228° |
| 2026-05-05 17:19 | 46.63279 | 6.71363 | 12150 ft | 235 kts | 227° |
| 2026-05-05 17:20 | 46.62194 | 6.69597 | 11691 ft | 234 kts | 227° |
| 2026-05-05 17:20 | 46.61120 | 6.67858 | 11242 ft | 225 kts | 227° |
| 2026-05-05 17:20 | 46.60103 | 6.66209 | 10873 ft | 213 kts | 227° |
| 2026-05-05 17:20 | 46.59125 | 6.64621 | 10502 ft | 209 kts | 227° |
| 2026-05-05 17:21 | 46.58160 | 6.63056 | 10154 ft | 207 kts | 226° |
| 2026-05-05 17:21 | 46.57199 | 6.61502 | 9817 ft | 206 kts | 227° |
| 2026-05-05 17:21 | 46.56239 | 6.59946 | 9454 ft | 206 kts | 226° |
| 2026-05-05 17:22 | 46.54330 | 6.56862 | 8716 ft | 204 kts | 227° |
| 2026-05-05 17:22 | 46.53377 | 6.55322 | 8294 ft | 205 kts | 227° |
| 2026-05-05 17:22 | 46.52424 | 6.53779 | 7941 ft | 204 kts | 227° |
| 2026-05-05 17:22 | 46.51478 | 6.52267 | 7653 ft | 199 kts | 227° |
| 2026-05-05 17:23 | 46.50561 | 6.50794 | 7670 ft | 200 kts | 227° |
| 2026-05-05 17:23 | 46.49632 | 6.49280 | 7742 ft | 202 kts | 227° |
| 2026-05-05 17:23 | 46.48707 | 6.47789 | 7820 ft | 201 kts | 227° |
| 2026-05-05 17:23 | 46.47757 | 6.46264 | 7702 ft | 210 kts | 226° |
| 2026-05-05 17:24 | 46.46717 | 6.44727 | 7393 ft | 208 kts | 225° |
| 2026-05-05 17:24 | 46.45738 | 6.43273 | 7153 ft | 201 kts | 223° |
| 2026-05-05 17:24 | 46.44758 | 6.41860 | 6858 ft | 196 kts | 225° |
| 2026-05-05 17:24 | 46.43811 | 6.40433 | 6623 ft | 199 kts | 226° |
| 2026-05-05 17:25 | 46.42837 | 6.39012 | 6378 ft | 197 kts | 224° |
| 2026-05-05 17:25 | 46.42512 | 6.38541 | 6290 ft | 195 kts | 225° |
| 2026-05-05 17:25 | 46.40946 | 6.36197 | 5854 ft | 193 kts | 226° |
| 2026-05-05 17:25 | 46.40021 | 6.34821 | 5568 ft | 188 kts | 226° |
| 2026-05-05 17:26 | 46.39105 | 6.33449 | 5297 ft | 191 kts | 225° |
| 2026-05-05 17:26 | 46.38197 | 6.32096 | 5070 ft | 183 kts | 225° |
| 2026-05-05 17:26 | 46.37326 | 6.30829 | 4901 ft | 171 kts | 224° |
| 2026-05-05 17:26 | 46.36504 | 6.29611 | 4634 ft | 168 kts | 226° |
| 2026-05-05 17:27 | 46.35697 | 6.28420 | 4384 ft | 163 kts | 225° |
| 2026-05-05 17:27 | 46.34921 | 6.27263 | 4150 ft | 158 kts | 226° |
| 2026-05-05 17:27 | 46.34419 | 6.26517 | 4009 ft | 155 kts | 225° |
| 2026-05-05 17:27 | 46.33647 | 6.25390 | 3828 ft | 170 kts | 226° |
| 2026-05-05 17:28 | 46.32557 | 6.23780 | 3522 ft | 165 kts | 226° |
| 2026-05-05 17:28 | 46.32023 | 6.22986 | 3368 ft | 161 kts | 225° |
| 2026-05-05 17:28 | 46.31255 | 6.21866 | 3151 ft | 152 kts | 225° |
| 2026-05-05 17:28 | 46.30520 | 6.20773 | 2986 ft | 149 kts | 225° |
| 2026-05-05 17:29 | 46.29819 | 6.19736 | 2770 ft | 143 kts | 225° |
| 2026-05-05 17:29 | 46.29123 | 6.18711 | 2546 ft | 144 kts | 224° |
| 2026-05-05 17:29 | 46.28459 | 6.17730 | 2348 ft | 137 kts | 225° |
| 2026-05-05 17:29 | 46.27776 | 6.16728 | 2156 ft | 142 kts | 225° |
| 2026-05-05 17:30 | 46.27088 | 6.15720 | 1943 ft | 139 kts | 225° |
| 2026-05-05 17:30 | 46.26422 | 6.14739 | 1778 ft | 134 kts | 223° |
| 2026-05-05 17:30 | 46.25763 | 6.13763 | 1629 ft | 136 kts | 224° |
| 2026-05-05 17:30 | 46.25095 | 6.12781 | 1444 ft | 141 kts | 223° |
| 2026-05-05 17:31 | 46.24421 | 6.11803 | 1371 ft | 125 kts | 224° |
| 2026-05-05 17:31 | 46.23914 | 6.11055 | 1378 ft | 80 kts | 226° |
| 2026-05-05 17:31 | 46.23639 | 6.10737 | 1383 ft | 26 kts | 196° |
| 2026-05-05 17:31 | 46.23538 | 6.10706 | 1386 ft | 12 kts | 193° |
| 2026-05-05 17:32 | 46.23485 | 6.10684 | 1388 ft | 5 kts | 196° |
| 2026-05-05 17:32 | 46.23454 | 6.10673 | 1390 ft | 4 kts | 192° |
| 2026-05-05 17:32 | 46.23437 | 6.10676 | 1401 ft | 1 kts | 159° |
| 2026-05-05 17:32 | 46.23435 | 6.10677 | 1400 ft | 1 kts | 163° |
| 2026-05-05 17:33 | 46.23410 | 6.10663 | 1398 ft | 6 kts | 218° |
| 2026-05-05 17:33 | 46.23367 | 6.10595 | 1400 ft | 10 kts | 228° |
| 2026-05-05 17:33 | 46.23320 | 6.10526 | 1403 ft | 9 kts | 225° |
| 2026-05-05 17:33 | 46.23278 | 6.10465 | 1401 ft | 9 kts | 225° |
| 2026-05-05 17:34 | 46.23215 | 6.10373 | 1398 ft | 14 kts | 225° |
| 2026-05-05 17:34 | 46.23162 | 6.10356 | 1393 ft | 8 kts | 142° |
| 2026-05-05 17:34 | 46.23126 | 6.10408 | 1393 ft | 7 kts | 134° |
| 2026-05-05 17:34 | 46.23095 | 6.10451 | 1401 ft | 6 kts | 137° |
| 2026-05-05 17:35 | 46.23060 | 6.10482 | 1393 ft | 2 kts | 181° |
| 2026-05-05 17:35 | 46.23044 | 6.10484 | 1400 ft | 4 kts | 169° |
| 2026-05-05 17:35 | 46.23023 | 6.10508 | 1404 ft | 2 kts | 136° |
| 2026-05-05 17:35 | 46.23015 | 6.10518 | 1400 ft | 1 kts | 136° |
| 2026-05-05 17:36 | 46.23010 | 6.10525 | 1393 ft | 1 kts | 135° |
| 2026-05-05 17:36 | 46.23008 | 6.10528 | 1401 ft | 0 kts | 135° |